createdAt,value
2019-02-22T00:01:19.811Z,96.40
2019-02-22T00:03:51.495Z,98.80
2019-02-22T00:06:23.181Z,91.40
2019-02-22T00:08:54.512Z,93.40
2019-02-22T00:11:25.982Z,93.20
2019-02-22T00:13:57.706Z,82.80
2019-02-22T00:16:29.591Z,97.20
2019-02-22T00:19:01.044Z,98.40
2019-02-22T00:21:33.043Z,89.60
2019-02-22T00:24:04.911Z,97.60
2019-02-22T00:26:36.571Z,96.80
2019-02-22T00:29:08.236Z,97.20
2019-02-22T00:31:40.143Z,101.20
2019-02-22T00:34:11.805Z,104.80
2019-02-22T00:36:43.639Z,97.00
2019-02-22T00:39:15.285Z,105.00
2019-02-22T00:41:46.945Z,95.60
2019-02-22T00:44:18.693Z,100.60
2019-02-22T00:46:50.416Z,110.40
2019-02-22T00:49:22.219Z,107.60
2019-02-22T00:51:53.928Z,115.80
2019-02-22T00:54:25.581Z,116.60
2019-02-22T00:56:57.815Z,102.60
2019-02-22T00:59:29.842Z,106.80
2019-02-22T01:02:02.025Z,129.00
2019-02-22T01:04:34.179Z,132.80
2019-02-22T01:07:06.086Z,118.40
2019-02-22T01:09:37.916Z,120.60
2019-02-22T01:12:09.755Z,126.60
2019-02-22T01:14:41.703Z,124.20
2019-02-22T01:17:13.927Z,129.40
2019-02-22T01:19:45.693Z,123.40
2019-02-22T01:22:18.679Z,136.80
2019-02-22T01:24:50.397Z,123.80
2019-02-22T01:27:23.321Z,130.20
2019-02-22T01:29:55.049Z,137.40
2019-02-22T01:32:26.736Z,131.80
2019-02-22T01:34:58.655Z,127.00
2019-02-22T01:37:30.407Z,130.60
2019-02-22T01:40:02.011Z,130.80
2019-02-22T01:42:33.535Z,138.20
2019-02-22T01:45:05.400Z,128.40
2019-02-22T01:47:37.240Z,140.60
2019-02-22T01:50:08.998Z,134.00
2019-02-22T01:52:40.540Z,132.80
2019-02-22T01:55:11.967Z,129.60
2019-02-22T01:57:43.866Z,138.80
2019-02-22T02:00:15.718Z,126.80
2019-02-22T02:02:47.637Z,136.20
2019-02-22T02:05:19.556Z,133.20
2019-02-22T02:07:51.412Z,135.40
2019-02-22T02:10:23.022Z,143.00
2019-02-22T02:12:54.639Z,141.60
2019-02-22T02:15:26.471Z,131.80
2019-02-22T02:17:58.229Z,149.80
2019-02-22T02:20:30.049Z,147.00
2019-02-22T02:23:01.628Z,150.20
2019-02-22T02:25:33.533Z,149.80
2019-02-22T02:28:05.327Z,140.80
2019-02-22T02:30:36.985Z,137.80
2019-02-22T02:33:08.685Z,151.00
2019-02-22T02:35:40.943Z,146.80
2019-02-22T02:38:12.554Z,135.00
2019-02-22T02:40:44.373Z,139.40
2019-02-22T02:43:16.119Z,138.40
2019-02-22T02:45:47.972Z,139.00
2019-02-22T02:48:19.935Z,137.00
2019-02-22T02:50:51.544Z,142.00
2019-02-22T02:53:23.327Z,140.00
2019-02-22T02:55:55.077Z,139.20
2019-02-22T02:58:26.559Z,134.60
2019-02-22T03:00:58.083Z,144.00
2019-02-22T03:03:29.926Z,139.60
2019-02-22T03:06:20.438Z,143.00
2019-02-22T03:08:52.372Z,138.40
2019-02-22T03:11:31.494Z,149.20
2019-02-22T03:14:04.732Z,151.20
2019-02-22T03:16:38.645Z,133.80
2019-02-22T03:19:10.384Z,125.60
2019-02-22T03:21:42.492Z,127.80
2019-02-22T03:24:14.095Z,127.60
2019-02-22T03:26:45.987Z,131.40
2019-02-22T03:29:17.689Z,155.00
2019-02-22T03:31:50.165Z,149.40
2019-02-22T03:34:21.866Z,128.80
2019-02-22T03:36:54.127Z,145.60
2019-02-22T03:39:25.892Z,144.40
2019-02-22T03:41:57.731Z,129.20
2019-02-22T03:44:29.400Z,133.80
2019-02-22T03:47:04.014Z,123.20
2019-02-22T03:49:36.189Z,120.80
2019-02-22T03:52:30.116Z,112.40
2019-02-22T03:55:01.875Z,129.80
2019-02-22T03:57:33.542Z,119.60
2019-02-22T04:00:05.372Z,141.40
2019-02-22T04:02:37.558Z,161.40
2019-02-22T04:05:09.765Z,138.80
2019-02-22T04:07:41.412Z,137.60
2019-02-22T04:10:13.115Z,120.40
2019-02-22T04:12:44.904Z,128.00
2019-02-22T04:15:16.569Z,132.40
2019-02-22T04:17:48.272Z,105.00
2019-02-22T04:20:19.980Z,136.80
2019-02-22T04:22:51.952Z,120.40
2019-02-22T04:25:23.627Z,132.20
2019-02-22T04:27:55.365Z,123.60
2019-02-22T04:30:28.046Z,130.60
2019-02-22T04:32:59.456Z,136.20
2019-02-22T04:35:31.798Z,119.00
2019-02-22T04:38:03.447Z,131.20
2019-02-22T04:40:35.341Z,123.60
2019-02-22T04:43:08.375Z,110.40
2019-02-22T04:45:41.694Z,122.80
2019-02-22T04:48:14.534Z,118.40
2019-02-22T04:50:46.188Z,108.00
2019-02-22T04:53:18.058Z,105.40
2019-02-22T04:55:49.703Z,112.80
2019-02-22T04:58:21.340Z,108.00
2019-02-22T05:00:52.932Z,110.00
2019-02-22T05:03:24.592Z,105.40
2019-02-22T05:05:56.312Z,101.80
2019-02-22T05:08:28.718Z,95.00
2019-02-22T05:11:00.000Z,113.40
2019-02-22T05:13:31.749Z,102.40
2019-02-22T05:16:03.984Z,101.20
2019-02-22T05:18:35.897Z,102.40
2019-02-22T05:21:07.697Z,101.20
2019-02-22T05:23:39.253Z,100.00
2019-02-22T05:26:10.570Z,111.00
2019-02-22T05:28:42.304Z,88.60
2019-02-22T05:31:14.238Z,83.00
2019-02-22T05:33:45.711Z,97.00
2019-02-22T05:36:18.331Z,95.20
2019-02-22T05:38:49.965Z,85.40
2019-02-22T05:41:21.739Z,79.00
2019-02-22T05:43:54.529Z,77.40
2019-02-22T05:46:27.289Z,84.40
2019-02-22T05:48:59.026Z,89.40
2019-02-22T05:51:31.095Z,93.20
2019-02-22T05:54:02.918Z,91.40
2019-02-22T05:56:34.619Z,71.40
2019-02-22T05:59:06.528Z,80.60
2019-02-22T06:01:43.624Z,81.20
2019-02-22T06:04:15.607Z,76.00
2019-02-22T06:06:47.547Z,78.80
2019-02-22T06:09:19.215Z,75.40
2019-02-22T06:11:50.910Z,68.40
2019-02-22T06:14:22.350Z,78.20
2019-02-22T06:16:53.817Z,76.00
2019-02-22T06:19:25.177Z,81.80
2019-02-22T06:21:56.417Z,62.00
2019-02-22T06:24:28.335Z,65.20
2019-02-22T06:27:00.018Z,76.60
2019-02-22T06:29:31.433Z,71.00
2019-02-22T06:32:03.667Z,65.20
2019-02-22T06:34:35.451Z,59.60
2019-02-22T06:37:07.126Z,65.20
2019-02-22T06:39:38.944Z,65.60
2019-02-22T06:42:10.617Z,70.80
2019-02-22T06:44:42.501Z,74.60
2019-02-22T06:47:14.228Z,77.60
2019-02-22T06:49:45.731Z,65.20
2019-02-22T06:52:17.385Z,73.20
2019-02-22T06:54:48.997Z,72.60
2019-02-22T06:57:21.009Z,70.20
2019-02-22T06:59:52.274Z,68.60
2019-02-22T07:02:24.175Z,63.40
2019-02-22T07:04:55.740Z,70.60
2019-02-22T07:07:27.387Z,68.80
2019-02-22T07:09:59.209Z,64.20
2019-02-22T07:12:37.589Z,68.20
2019-02-22T07:15:09.451Z,63.40
2019-02-22T07:17:41.518Z,70.00
2019-02-22T07:20:13.461Z,63.20
2019-02-22T07:22:45.089Z,64.40
2019-02-22T07:25:16.719Z,58.80
2019-02-22T07:27:48.197Z,64.00
2019-02-22T07:30:19.736Z,58.80
2019-02-22T07:32:51.188Z,64.00
2019-02-22T07:35:22.792Z,65.40
2019-02-22T07:37:54.059Z,58.80
2019-02-22T07:40:25.563Z,63.00
2019-02-22T07:43:07.533Z,63.80
2019-02-22T07:45:30.321Z,63.80
2019-02-22T07:48:01.906Z,55.80
2019-02-22T07:50:33.721Z,71.40
2019-02-22T07:53:05.225Z,61.00
2019-02-22T07:55:36.815Z,63.60
2019-02-22T07:58:08.808Z,61.60
2019-02-22T08:00:40.249Z,59.20
2019-02-22T08:03:11.757Z,58.40
2019-02-22T08:05:43.535Z,52.40
2019-02-22T08:08:16.236Z,58.80
2019-02-22T08:10:47.936Z,59.00
2019-02-22T08:13:20.261Z,56.20
2019-02-22T08:15:51.980Z,55.60
2019-02-22T08:18:23.510Z,53.00
2019-02-22T08:20:55.082Z,53.40
2019-02-22T08:23:26.706Z,55.40
2019-02-22T08:25:58.609Z,52.20
2019-02-22T08:28:30.043Z,50.60
2019-02-22T08:31:01.989Z,45.60
2019-02-22T08:33:33.503Z,56.00
2019-02-22T08:36:05.298Z,54.80
2019-02-22T08:38:36.858Z,51.40
2019-02-22T08:41:10.274Z,53.20
2019-02-22T08:43:43.032Z,47.20
2019-02-22T08:46:14.855Z,50.00
2019-02-22T08:48:47.049Z,53.40
2019-02-22T08:51:18.840Z,48.80
2019-02-22T08:53:55.736Z,49.80
2019-02-22T08:56:31.994Z,48.00
2019-02-22T08:59:03.590Z,49.00
2019-02-22T09:01:35.817Z,42.60
2019-02-22T09:04:07.344Z,51.60
2019-02-22T09:06:38.927Z,48.00
2019-02-22T09:09:10.450Z,47.40
2019-02-22T09:11:59.357Z,44.80
2019-02-22T09:14:49.565Z,43.60
2019-02-22T09:17:21.065Z,47.40
2019-02-22T09:19:52.858Z,47.40
2019-02-22T09:22:24.376Z,49.00
2019-02-22T09:24:56.052Z,42.20
2019-02-22T09:27:27.705Z,46.00
2019-02-22T09:29:59.575Z,48.60
2019-02-22T09:32:32.151Z,43.80
2019-02-22T09:35:03.868Z,40.80
2019-02-22T09:37:35.265Z,42.80
2019-02-22T09:40:07.500Z,45.40
2019-02-22T09:42:39.289Z,49.00
2019-02-22T09:45:11.600Z,44.00
2019-02-22T09:47:43.072Z,46.80
2019-02-22T09:50:14.911Z,45.40
2019-02-22T09:52:46.395Z,44.20
2019-02-22T09:55:19.689Z,47.40
2019-02-22T09:57:51.175Z,40.40
2019-02-22T10:00:22.795Z,40.40
2019-02-22T10:02:54.499Z,46.20
2019-02-22T10:05:26.129Z,43.60
2019-02-22T10:07:57.566Z,44.20
2019-02-22T10:10:29.290Z,45.60
2019-02-22T10:13:00.830Z,39.40
2019-02-22T10:15:32.528Z,37.40
2019-02-22T10:18:04.044Z,37.80
2019-02-22T10:20:35.597Z,36.80
2019-02-22T10:23:07.452Z,33.80
2019-02-22T10:25:39.749Z,38.00
2019-02-22T10:28:17.688Z,34.20
2019-02-22T10:30:44.853Z,37.80
2019-02-22T10:33:16.232Z,36.60
2019-02-22T10:35:48.001Z,37.00
2019-02-22T10:38:19.668Z,39.60
2019-02-22T10:40:51.653Z,37.20
2019-02-22T10:43:23.293Z,37.40
2019-02-22T10:45:55.021Z,37.60
2019-02-22T10:48:26.486Z,36.60
2019-02-22T10:50:59.466Z,29.20
2019-02-22T10:53:31.370Z,37.60
2019-02-22T10:56:03.036Z,38.60
2019-02-22T10:58:34.658Z,33.80
2019-02-22T11:01:06.746Z,31.00
2019-02-22T11:03:38.363Z,38.00
2019-02-22T11:06:10.061Z,34.40
2019-02-22T11:08:41.767Z,33.60
2019-02-22T11:11:13.359Z,31.20
2019-02-22T11:13:44.820Z,34.20
2019-02-22T11:16:16.426Z,34.00
2019-02-22T11:18:48.811Z,35.80
2019-02-22T11:21:20.196Z,40.40
2019-02-22T11:23:51.910Z,36.60
2019-02-22T11:26:23.493Z,30.00
2019-02-22T11:28:54.955Z,36.20
2019-02-22T11:31:26.540Z,34.20
2019-02-22T11:33:58.048Z,35.20
2019-02-22T11:36:29.821Z,34.20
2019-02-22T11:39:01.526Z,50.20
2019-02-22T11:41:34.803Z,28.40
2019-02-22T11:44:06.498Z,35.40
2019-02-22T11:46:37.986Z,34.40
2019-02-22T11:49:10.405Z,35.40
2019-02-22T11:51:42.080Z,35.00
2019-02-22T11:54:13.721Z,34.40
2019-02-22T11:56:45.688Z,34.80
2019-02-22T11:59:17.661Z,35.00
2019-02-22T12:01:49.521Z,36.60
2019-02-22T12:04:21.166Z,37.00
2019-02-22T12:06:52.785Z,35.00
2019-02-22T12:09:24.778Z,35.80
2019-02-22T12:11:56.373Z,36.00
2019-02-22T12:14:27.971Z,38.20
2019-02-22T12:16:59.459Z,37.60
2019-02-22T12:19:31.010Z,37.60
2019-02-22T12:22:02.565Z,35.40
2019-02-22T12:24:34.182Z,31.80
2019-02-22T12:27:05.887Z,33.20
2019-02-22T12:29:37.792Z,30.20
2019-02-22T12:32:09.433Z,37.20
2019-02-22T12:34:41.125Z,36.00
2019-02-22T12:37:12.816Z,34.00
2019-02-22T12:39:44.194Z,36.80
2019-02-22T12:42:18.115Z,35.40
2019-02-22T12:45:02.492Z,29.80
2019-02-22T12:47:30.666Z,34.60
2019-02-22T12:50:02.244Z,37.60
2019-02-22T12:52:34.383Z,40.20
2019-02-22T12:55:06.741Z,37.80
2019-02-22T12:57:38.578Z,35.60
2019-02-22T13:00:13.342Z,35.40
2019-02-22T13:02:45.182Z,38.40
2019-02-22T13:05:17.612Z,37.20
2019-02-22T13:07:52.408Z,36.00
2019-02-22T13:10:28.126Z,37.20
2019-02-22T13:12:59.911Z,18.20
2019-02-22T13:15:31.456Z,38.60
2019-02-22T13:18:03.205Z,41.20
2019-02-22T13:20:34.877Z,40.40
2019-02-22T13:23:06.618Z,38.00
2019-02-22T13:25:38.026Z,37.00
2019-02-22T13:28:09.547Z,38.40
2019-02-22T13:30:41.169Z,36.40
2019-02-22T13:33:12.632Z,38.20
2019-02-22T13:35:44.265Z,39.40
2019-02-22T13:38:15.791Z,37.00
2019-02-22T13:40:49.207Z,40.20
2019-02-22T13:43:21.068Z,34.80
2019-02-22T13:45:52.948Z,36.40
2019-02-22T13:48:25.054Z,38.40
2019-02-22T13:50:56.721Z,41.60
2019-02-22T13:53:28.981Z,45.40
2019-02-22T13:56:00.510Z,40.80
2019-02-22T13:58:32.261Z,39.00
2019-02-22T14:01:04.243Z,41.80
2019-02-22T14:03:35.834Z,41.20
2019-02-22T14:06:07.650Z,44.00
2019-02-22T14:08:39.306Z,38.40
2019-02-22T14:11:16.926Z,41.00
2019-02-22T14:13:52.284Z,39.00
2019-02-22T14:16:27.568Z,41.20
2019-02-22T14:18:58.968Z,40.20
2019-02-22T14:21:30.586Z,36.60
2019-02-22T14:24:02.070Z,36.20
2019-02-22T14:26:33.829Z,41.20
2019-02-22T14:29:05.387Z,31.40
2019-02-22T14:31:36.907Z,39.20
2019-02-22T14:34:08.573Z,35.80
2019-02-22T14:36:40.315Z,39.00
2019-02-22T14:39:12.337Z,42.00
2019-02-22T14:41:44.133Z,42.60
2019-02-22T14:44:15.740Z,40.80
2019-02-22T14:46:47.702Z,43.40
2019-02-22T14:49:19.278Z,43.20
2019-02-22T14:51:51.118Z,42.60
2019-02-22T14:54:22.594Z,44.20
2019-02-22T14:56:54.514Z,49.00
2019-02-22T14:59:26.141Z,42.00
2019-02-22T15:01:58.008Z,48.80
2019-02-22T15:04:29.597Z,45.80
2019-02-22T15:07:01.342Z,42.40
2019-02-22T15:09:34.164Z,40.40
2019-02-22T15:12:05.793Z,39.80
2019-02-22T15:14:37.454Z,41.80
2019-02-22T15:17:33.724Z,42.40
2019-02-22T15:20:06.261Z,42.60
2019-02-22T15:22:37.795Z,42.00
2019-02-22T15:25:10.702Z,41.00
2019-02-22T15:27:42.684Z,44.00
2019-02-22T15:30:14.717Z,45.80
2019-02-22T15:32:46.503Z,40.80
2019-02-22T15:35:18.412Z,43.00
2019-02-22T15:37:50.289Z,44.00
2019-02-22T15:40:22.219Z,42.60
2019-02-22T15:42:53.586Z,42.60
2019-02-22T15:45:25.700Z,42.80
2019-02-22T15:47:57.454Z,43.80
2019-02-22T15:50:29.289Z,41.00
2019-02-22T15:53:00.958Z,43.80
2019-02-22T15:55:32.957Z,36.60
2019-02-22T15:58:04.436Z,39.20
2019-02-22T16:00:36.284Z,43.20
2019-02-22T16:03:07.971Z,46.60
2019-02-22T16:05:42.328Z,45.80
2019-02-22T16:08:13.993Z,45.20
2019-02-22T16:10:45.696Z,42.80
2019-02-22T16:13:18.191Z,47.00
2019-02-22T16:15:50.057Z,45.00
2019-02-22T16:18:21.871Z,46.60
2019-02-22T16:20:54.129Z,40.60
2019-02-22T16:23:25.585Z,47.20
2019-02-22T16:25:58.219Z,47.80
2019-02-22T16:28:29.751Z,48.60
2019-02-22T16:31:01.442Z,48.80
2019-02-22T16:33:34.166Z,46.80
2019-02-22T16:36:06.110Z,48.00
2019-02-22T16:38:37.698Z,48.00
2019-02-22T16:41:09.548Z,45.00
2019-02-22T16:43:41.136Z,53.60
2019-02-22T16:46:12.515Z,53.40
2019-02-22T16:48:44.018Z,44.80
2019-02-22T16:51:15.877Z,52.20
2019-02-22T16:53:47.519Z,51.20
2019-02-22T16:56:19.459Z,53.20
2019-02-22T16:58:51.160Z,49.80
2019-02-22T17:01:22.574Z,48.60
2019-02-22T17:03:54.163Z,48.00
2019-02-22T17:06:25.825Z,49.40
2019-02-22T17:08:57.380Z,53.20
2019-02-22T17:11:29.197Z,54.80
2019-02-22T17:14:00.699Z,51.00
2019-02-22T17:16:32.474Z,50.20
2019-02-22T17:19:03.923Z,52.60
2019-02-22T17:21:35.871Z,51.40
2019-02-22T17:24:07.414Z,50.20
2019-02-22T17:26:40.315Z,52.40
2019-02-22T17:29:11.668Z,49.80
2019-02-22T17:31:44.991Z,55.40
2019-02-22T17:34:16.767Z,56.00
2019-02-22T17:36:48.256Z,55.80
2019-02-22T17:39:19.844Z,47.00
2019-02-22T17:41:51.580Z,53.00
2019-02-22T17:44:23.283Z,55.80
2019-02-22T17:46:57.845Z,49.80
2019-02-22T17:49:28.817Z,51.40
2019-02-22T17:52:00.372Z,52.20
2019-02-22T17:54:32.353Z,48.60
2019-02-22T17:57:03.973Z,55.20
2019-02-22T17:59:35.779Z,49.80
2019-02-22T18:02:07.508Z,52.40
2019-02-22T18:04:38.970Z,50.40
2019-02-22T18:07:10.602Z,53.00
2019-02-22T18:09:42.621Z,48.80
2019-02-22T18:12:14.381Z,56.60
2019-02-22T18:14:46.061Z,54.80
2019-02-22T18:17:18.004Z,56.00
2019-02-22T18:19:49.720Z,54.40
2019-02-22T18:22:25.883Z,53.00
2019-02-22T18:24:54.471Z,53.80
2019-02-22T18:27:26.091Z,48.20
2019-02-22T18:29:57.746Z,55.00
2019-02-22T18:32:29.194Z,49.20
2019-02-22T18:35:00.925Z,49.60
2019-02-22T18:37:32.563Z,53.00
2019-02-22T18:40:04.370Z,50.80
2019-02-22T18:42:36.033Z,51.00
2019-02-22T18:45:07.988Z,55.00
2019-02-22T18:47:39.750Z,53.40
2019-02-22T18:50:11.604Z,50.80
2019-02-22T18:52:43.408Z,49.00
2019-02-22T18:55:15.204Z,52.80
2019-02-22T18:57:46.671Z,51.20
2019-02-22T19:00:19.888Z,54.00
2019-02-22T19:02:51.784Z,50.00
2019-02-22T19:05:23.269Z,52.80
2019-02-22T19:07:54.712Z,50.40
2019-02-22T19:10:26.548Z,44.20
2019-02-22T19:12:58.020Z,48.80
2019-02-22T19:15:29.540Z,50.40
2019-02-22T19:18:01.207Z,50.00
2019-02-22T19:20:32.872Z,52.20
2019-02-22T19:23:04.346Z,51.80
2019-02-22T19:25:35.939Z,46.60
2019-02-22T19:28:07.734Z,48.40
2019-02-22T19:30:39.035Z,50.40
2019-02-22T19:33:10.393Z,52.40
2019-02-22T19:35:42.299Z,50.80
2019-02-22T19:38:13.951Z,47.00
2019-02-22T19:40:45.652Z,51.00
2019-02-22T19:43:17.153Z,51.00
2019-02-22T19:45:49.916Z,49.00
2019-02-22T19:48:21.381Z,50.60
2019-02-22T19:50:53.176Z,51.80
2019-02-22T19:53:24.735Z,52.20
2019-02-22T19:55:56.697Z,45.80
2019-02-22T19:58:28.325Z,50.20
2019-02-22T20:01:00.037Z,53.60
2019-02-22T20:03:31.686Z,51.20
2019-02-22T20:06:03.437Z,51.20
2019-02-22T20:08:34.989Z,51.00
2019-02-22T20:11:06.829Z,46.40
2019-02-22T20:13:38.739Z,53.60
2019-02-22T20:16:10.576Z,49.60
2019-02-22T20:18:42.950Z,45.80
2019-02-22T20:21:14.441Z,48.00
2019-02-22T20:23:46.272Z,48.60
2019-02-22T20:26:17.627Z,49.80
2019-02-22T20:28:49.432Z,49.20
2019-02-22T20:31:20.961Z,47.40
2019-02-22T20:33:52.654Z,50.80
2019-02-22T20:36:28.359Z,45.20
2019-02-22T20:38:57.479Z,49.60
2019-02-22T20:41:29.120Z,49.40
2019-02-22T20:44:00.864Z,46.40
2019-02-22T20:46:33.210Z,51.20
2019-02-22T20:49:05.232Z,51.40
2019-02-22T20:51:37.241Z,46.80
2019-02-22T20:54:10.153Z,44.60
2019-02-22T20:56:42.146Z,47.60
2019-02-22T20:59:13.811Z,50.40
2019-02-22T21:01:45.573Z,41.60
2019-02-22T21:04:17.151Z,43.80
2019-02-22T21:06:48.628Z,50.20
2019-02-22T21:09:19.979Z,50.80
2019-02-22T21:11:51.574Z,48.60
2019-02-22T21:14:23.271Z,49.60
2019-02-22T21:16:54.748Z,47.20
2019-02-22T21:19:26.462Z,53.00
2019-02-22T21:21:57.978Z,43.40
2019-02-22T21:24:29.542Z,49.00
2019-02-22T21:27:01.028Z,51.40
2019-02-22T21:29:32.599Z,47.80
2019-02-22T21:32:04.448Z,44.20
2019-02-22T21:34:35.964Z,55.40
2019-02-22T21:37:07.576Z,54.00
2019-02-22T21:39:40.119Z,52.80
2019-02-22T21:42:19.880Z,50.80
2019-02-22T21:44:45.322Z,56.20
2019-02-22T21:47:16.869Z,52.20
2019-02-22T21:49:48.734Z,55.40
2019-02-22T21:52:20.305Z,54.60
2019-02-22T21:54:52.140Z,49.20
2019-02-22T21:57:23.543Z,56.60
2019-02-22T21:59:55.193Z,54.80
2019-02-22T22:02:26.688Z,53.20
2019-02-22T22:04:58.331Z,56.00
2019-02-22T22:07:29.717Z,50.60
2019-02-22T22:10:01.363Z,55.00
2019-02-22T22:12:33.138Z,50.20
2019-02-22T22:15:05.001Z,57.00
2019-02-22T22:17:36.735Z,55.20
2019-02-22T22:20:08.539Z,54.40
2019-02-22T22:22:40.210Z,55.80
2019-02-22T22:25:11.956Z,53.80
2019-02-22T22:27:43.785Z,53.20
2019-02-22T22:30:15.384Z,53.60
2019-02-22T22:32:47.133Z,53.40
2019-02-22T22:35:20.942Z,51.20
2019-02-22T22:37:53.107Z,55.00
2019-02-22T22:40:24.536Z,57.20
2019-02-22T22:42:56.427Z,54.00
2019-02-22T22:45:28.203Z,55.40
2019-02-22T22:48:00.248Z,54.80
2019-02-22T22:50:31.852Z,56.20
2019-02-22T22:53:04.743Z,54.60
2019-02-22T22:55:37.131Z,53.80
2019-02-22T22:58:09.354Z,51.40
2019-02-22T23:01:03.289Z,55.60
2019-02-22T23:03:35.997Z,54.40
2019-02-22T23:06:08.709Z,54.20
2019-02-22T23:08:40.206Z,61.00
2019-02-22T23:11:12.364Z,57.20
2019-02-22T23:13:44.116Z,57.40
2019-02-22T23:16:16.117Z,53.40
2019-02-22T23:18:47.833Z,52.80
2019-02-22T23:21:20.717Z,57.00
2019-02-22T23:23:52.189Z,55.20
2019-02-22T23:26:23.688Z,53.80
2019-02-22T23:28:56.053Z,60.40
2019-02-22T23:31:27.886Z,54.20
2019-02-22T23:33:59.344Z,51.80
2019-02-22T23:36:30.820Z,53.80
2019-02-22T23:39:03.651Z,55.00
2019-02-22T23:41:37.045Z,45.20
2019-02-22T23:44:08.783Z,55.60
2019-02-22T23:46:40.298Z,49.00
2019-02-22T23:49:13.314Z,52.80
2019-02-22T23:51:44.898Z,50.60
2019-02-22T23:54:16.624Z,52.80
2019-02-22T23:56:48.244Z,51.20
2019-02-22T23:59:19.861Z,55.40
